createdAt,value
2023-03-17T00:00:07.227Z,1.63
2023-03-17T00:01:09.877Z,1.54
2023-03-17T00:02:12.109Z,1.52
2023-03-17T00:03:23.742Z,1.55
2023-03-17T00:04:27.403Z,1.49
2023-03-17T00:05:35.629Z,1.44
2023-03-17T00:06:38.325Z,1.45
2023-03-17T00:07:40.674Z,1.43
2023-03-17T00:08:43.870Z,1.41
2023-03-17T00:09:46.076Z,1.36
2023-03-17T00:10:48.789Z,1.33
2023-03-17T00:11:51.098Z,1.34
2023-03-17T00:12:55.161Z,1.30
2023-03-17T00:13:57.667Z,1.32
2023-03-17T00:14:59.843Z,1.29
2023-03-17T00:16:04.452Z,1.30
2023-03-17T00:17:06.760Z,1.35
2023-03-17T00:18:17.683Z,1.35
2023-03-17T00:19:33.793Z,1.37
2023-03-17T00:20:35.907Z,1.34
2023-03-17T00:21:38.044Z,1.36
2023-03-17T00:22:40.275Z,1.39
2023-03-17T00:23:47.043Z,1.42
2023-03-17T00:24:49.652Z,1.47
2023-03-17T00:25:53.560Z,1.40
2023-03-17T00:26:55.703Z,1.32
2023-03-17T00:28:00.876Z,1.33
2023-03-17T00:29:03.008Z,1.32
2023-03-17T00:30:05.659Z,1.28
2023-03-17T00:31:20.987Z,1.29
2023-03-17T00:32:23.241Z,1.28
2023-03-17T00:33:30.491Z,1.25
2023-03-17T00:34:32.814Z,1.16
2023-03-17T00:35:34.945Z,1.17
2023-03-17T00:36:37.522Z,1.27
2023-03-17T00:37:39.623Z,1.22
2023-03-17T00:38:41.848Z,1.22
2023-03-17T00:39:44.263Z,1.18
2023-03-17T00:42:50.959Z,1.03
2023-03-17T00:43:53.149Z,1.01
2023-03-17T00:44:55.634Z,0.92
2023-03-17T00:45:57.832Z,0.99
2023-03-17T00:47:00.710Z,0.99
2023-03-17T00:48:03.414Z,1.06
2023-03-17T00:50:24.479Z,1.07
2023-03-17T00:51:27.066Z,1.00
2023-03-17T00:52:29.390Z,0.88
2023-03-17T00:53:31.553Z,0.73
2023-03-17T00:54:33.833Z,0.74
2023-03-17T00:55:36.044Z,0.82
2023-03-17T00:56:39.689Z,0.84
2023-03-17T00:57:42.961Z,0.88
2023-03-17T00:58:46.167Z,0.81
2023-03-17T00:59:48.349Z,0.84
2023-03-17T01:00:52.241Z,0.90
2023-03-17T01:01:55.400Z,0.88
2023-03-17T01:02:57.973Z,0.80
2023-03-17T01:04:00.123Z,0.71
2023-03-17T01:05:06.698Z,0.62
2023-03-17T01:06:12.099Z,0.70
2023-03-17T01:07:14.478Z,0.72
2023-03-17T01:08:16.904Z,0.64
2023-03-17T01:09:19.574Z,0.68
2023-03-17T01:10:25.892Z,0.74
2023-03-17T01:11:28.020Z,0.79
2023-03-17T01:12:30.266Z,0.85
2023-03-17T01:13:32.376Z,0.84
2023-03-17T01:14:37.354Z,0.81
2023-03-17T01:15:43.343Z,0.76
2023-03-17T01:16:45.569Z,0.77
2023-03-17T01:17:48.065Z,0.70
2023-03-17T01:18:50.174Z,0.57
2023-03-17T01:19:52.854Z,0.60
2023-03-17T01:20:54.988Z,0.59
2023-03-17T01:21:57.873Z,0.60
2023-03-17T01:23:01.574Z,0.57
2023-03-17T01:24:04.456Z,0.55
2023-03-17T01:25:06.884Z,0.43
2023-03-17T01:26:09.672Z,0.49
2023-03-17T01:27:12.381Z,0.50
2023-03-17T01:28:18.007Z,0.49
2023-03-17T01:29:20.172Z,0.48
2023-03-17T01:30:31.455Z,0.54
2023-03-17T01:31:34.875Z,0.63
2023-03-17T01:32:37.205Z,0.63
2023-03-17T01:33:39.394Z,0.71
2023-03-17T01:34:41.509Z,0.70
2023-03-17T01:35:45.845Z,0.65
2023-03-17T01:36:48.611Z,0.52
2023-03-17T01:37:51.101Z,0.54
2023-03-17T01:38:53.800Z,0.50
2023-03-17T01:39:55.972Z,0.48
2023-03-17T01:40:58.239Z,0.49
2023-03-17T01:42:01.402Z,0.52
2023-03-17T01:43:06.312Z,0.44
2023-03-17T01:44:15.791Z,0.40
2023-03-17T01:45:55.216Z,0.40
2023-03-17T01:46:57.355Z,0.47
2023-03-17T01:47:59.494Z,0.47
2023-03-17T01:49:10.477Z,0.39
2023-03-17T01:50:13.184Z,0.31
2023-03-17T01:51:23.152Z,0.29
2023-03-17T01:52:25.373Z,0.34
2023-03-17T01:53:28.345Z,0.42
2023-03-17T01:54:37.942Z,0.44
2023-03-17T01:55:40.599Z,0.51
2023-03-17T01:56:44.734Z,0.45
2023-03-17T01:57:51.205Z,0.37
2023-03-17T01:58:54.614Z,0.24
2023-03-17T02:00:06.523Z,0.16
2023-03-17T02:01:08.787Z,0.30
2023-03-17T02:02:15.210Z,0.37
2023-03-17T02:03:18.319Z,0.39
2023-03-17T02:04:20.917Z,0.41
2023-03-17T02:05:26.084Z,0.40
2023-03-17T02:06:28.421Z,0.34
2023-03-17T02:07:31.461Z,0.24
2023-03-17T02:08:33.593Z,0.23
2023-03-17T02:09:36.143Z,0.26
2023-03-17T02:10:39.397Z,0.28
2023-03-17T02:11:42.185Z,0.28
2023-03-17T02:12:46.368Z,0.26
2023-03-17T02:13:48.655Z,0.24
2023-03-17T02:14:51.876Z,0.11
2023-03-17T02:15:54.522Z,0.09
2023-03-17T02:16:57.474Z,0.10
2023-03-17T02:18:00.151Z,0.12
2023-03-17T02:19:02.228Z,0.07
2023-03-17T02:20:33.238Z,0.12
2023-03-17T02:21:43.883Z,0.16
2023-03-17T02:22:49.621Z,0.18
2023-03-17T02:23:51.809Z,0.15
2023-03-17T02:24:58.560Z,0.16
2023-03-17T02:26:00.794Z,0.16
2023-03-17T02:27:34.868Z,0.16
2023-03-17T02:28:37.056Z,0.18
2023-03-17T02:29:39.517Z,0.15
2023-03-17T02:30:43.142Z,0.16
2023-03-17T02:31:45.560Z,0.11
2023-03-17T02:32:47.911Z,0.09
2023-03-17T02:33:50.435Z,0.08
2023-03-17T02:34:53.097Z,0.09
2023-03-17T02:35:55.321Z,0.12
2023-03-17T02:36:58.608Z,0.22
2023-03-17T02:38:01.157Z,0.24
2023-03-17T02:39:04.442Z,0.25
2023-03-17T02:40:07.831Z,0.28
2023-03-17T02:41:10.025Z,0.28
2023-03-17T02:42:14.007Z,0.22
2023-03-17T02:43:16.758Z,0.23
2023-03-17T02:44:19.114Z,0.21
2023-03-17T02:45:21.572Z,0.25
2023-03-17T02:46:23.734Z,0.20
2023-03-17T02:47:26.122Z,0.23
2023-03-17T02:48:28.424Z,0.25
2023-03-17T02:49:31.193Z,0.21
2023-03-17T02:50:33.603Z,0.20
2023-03-17T02:51:36.231Z,0.10
2023-03-17T02:52:38.350Z,0.11
2023-03-17T02:53:40.706Z,0.11
2023-03-17T02:54:42.965Z,0.11
2023-03-17T02:55:45.078Z,0.10
2023-03-17T02:56:47.253Z,0.00
2023-03-17T02:57:49.393Z,-0.07
2023-03-17T02:58:51.783Z,-0.03
2023-03-17T02:59:53.966Z,0.03
2023-03-17T03:00:56.626Z,0.06
2023-03-17T03:01:58.838Z,0.07
2023-03-17T03:03:01.405Z,-0.03
2023-03-17T03:04:04.062Z,-0.09
2023-03-17T03:05:07.427Z,-0.07
2023-03-17T03:06:09.552Z,-0.09
2023-03-17T03:07:12.382Z,-0.06
2023-03-17T03:08:14.652Z,-0.13
2023-03-17T03:09:17.891Z,-0.18
2023-03-17T03:10:20.049Z,-0.13
2023-03-17T03:11:22.359Z,-0.07
2023-03-17T03:12:24.976Z,-0.08
2023-03-17T03:13:27.142Z,-0.15
2023-03-17T03:14:29.300Z,-0.16
2023-03-17T03:15:31.507Z,-0.14
2023-03-17T03:16:34.395Z,-0.15
2023-03-17T03:17:36.830Z,-0.11
2023-03-17T03:18:38.997Z,-0.10
2023-03-17T03:19:41.112Z,-0.08
2023-03-17T03:20:44.687Z,-0.18
2023-03-17T03:21:46.812Z,-0.14
2023-03-17T03:22:48.975Z,-0.15
2023-03-17T03:23:51.165Z,-0.14
2023-03-17T03:24:53.298Z,-0.16
2023-03-17T03:25:55.828Z,-0.20
2023-03-17T03:26:58.104Z,-0.27
2023-03-17T03:28:00.261Z,-0.29
2023-03-17T03:29:02.836Z,-0.34
2023-03-17T03:30:07.986Z,-0.31
2023-03-17T03:31:10.431Z,-0.32
2023-03-17T03:32:12.739Z,-0.30
2023-03-17T03:33:15.592Z,-0.35
2023-03-17T03:34:17.730Z,-0.29
2023-03-17T03:35:19.900Z,-0.27
2023-03-17T03:36:22.595Z,-0.25
2023-03-17T03:37:25.075Z,-0.18
2023-03-17T03:38:27.604Z,-0.18
2023-03-17T03:39:29.717Z,-0.19
2023-03-17T03:40:32.321Z,-0.19
2023-03-17T03:41:34.756Z,-0.19
2023-03-17T03:42:36.879Z,-0.19
2023-03-17T03:43:39.026Z,-0.21
2023-03-17T03:44:41.161Z,-0.19
2023-03-17T03:45:43.386Z,-0.18
2023-03-17T03:46:45.888Z,-0.18
2023-03-17T03:47:48.114Z,-0.27
2023-03-17T03:48:50.240Z,-0.32
2023-03-17T03:49:52.419Z,-0.27
2023-03-17T03:50:58.613Z,-0.26
2023-03-17T03:52:00.928Z,-0.30
2023-03-17T03:53:03.083Z,-0.30
2023-03-17T03:54:05.329Z,-0.42
2023-03-17T03:55:09.009Z,-0.36
2023-03-17T03:56:11.299Z,-0.41
2023-03-17T03:57:13.417Z,-0.43
2023-03-17T03:58:15.523Z,-0.49
2023-03-17T03:59:17.840Z,-0.52
2023-03-17T04:00:20.236Z,-0.54
2023-03-17T04:01:22.395Z,-0.57
2023-03-17T04:02:24.584Z,-0.60
2023-03-17T04:03:27.096Z,-0.52
2023-03-17T04:04:29.376Z,-0.45
2023-03-17T04:05:31.874Z,-0.48
2023-03-17T04:06:33.995Z,-0.42
2023-03-17T04:07:37.002Z,-0.44
2023-03-17T04:08:39.152Z,-0.54
2023-03-17T04:09:41.529Z,-0.50
2023-03-17T04:10:43.762Z,-0.55
2023-03-17T04:11:45.980Z,-0.56
2023-03-17T04:12:48.102Z,-0.56
2023-03-17T04:13:50.273Z,-0.54
2023-03-17T04:14:52.382Z,-0.49
2023-03-17T04:15:54.613Z,-0.40
2023-03-17T04:16:56.740Z,-0.41
2023-03-17T04:17:58.877Z,-0.40
2023-03-17T04:19:01.709Z,-0.38
2023-03-17T04:20:04.311Z,-0.38
2023-03-17T04:21:08.377Z,-0.38
2023-03-17T04:22:12.020Z,-0.46
2023-03-17T04:23:14.158Z,-0.47
2023-03-17T04:24:16.353Z,-0.46
2023-03-17T04:25:18.710Z,-0.45
2023-03-17T04:26:23.144Z,-0.39
2023-03-17T04:27:25.300Z,-0.45
2023-03-17T04:28:27.570Z,-0.47
2023-03-17T04:29:30.018Z,-0.48
2023-03-17T04:30:32.698Z,-0.45
2023-03-17T04:31:36.155Z,-0.41
2023-03-17T04:32:38.313Z,-0.45
2023-03-17T04:33:40.877Z,-0.57
2023-03-17T04:34:43.027Z,-0.66
2023-03-17T04:35:45.555Z,-0.58
2023-03-17T04:36:48.194Z,-0.55
2023-03-17T04:37:51.056Z,-0.58
2023-03-17T04:38:53.438Z,-0.55
2023-03-17T04:39:55.951Z,-0.58
2023-03-17T04:40:58.084Z,-0.60
2023-03-17T04:42:00.277Z,-0.57
2023-03-17T04:43:03.546Z,-0.57
2023-03-17T04:44:06.338Z,-0.56
2023-03-17T04:45:15.551Z,-0.47
2023-03-17T04:46:18.186Z,-0.58
2023-03-17T04:47:20.303Z,-0.59
2023-03-17T04:48:22.444Z,-0.60
2023-03-17T04:49:24.834Z,-0.63
2023-03-17T04:50:26.952Z,-0.57
2023-03-17T04:51:29.097Z,-0.57
2023-03-17T04:52:31.208Z,-0.60
2023-03-17T04:53:33.395Z,-0.62
2023-03-17T04:54:36.565Z,-0.62
2023-03-17T04:55:38.679Z,-0.62
2023-03-17T04:56:41.073Z,-0.57
2023-03-17T04:57:44.373Z,-0.59
2023-03-17T04:58:46.697Z,-0.57
2023-03-17T04:59:48.845Z,-0.53
2023-03-17T05:00:51.498Z,-0.48
2023-03-17T05:01:53.660Z,-0.50
2023-03-17T05:02:55.777Z,-0.45
2023-03-17T05:03:57.945Z,-0.41
2023-03-17T05:05:00.169Z,-0.42
2023-03-17T05:06:03.802Z,-0.46
2023-03-17T05:07:05.954Z,-0.48
2023-03-17T05:08:08.070Z,-0.44
2023-03-17T05:09:10.403Z,-0.43
2023-03-17T05:10:12.696Z,-0.42
2023-03-17T05:11:15.416Z,-0.36
2023-03-17T05:12:17.569Z,-0.32
2023-03-17T05:13:19.688Z,-0.33
2023-03-17T05:14:21.841Z,-0.28
2023-03-17T05:15:24.009Z,-0.28
2023-03-17T05:16:26.150Z,-0.29
2023-03-17T05:17:28.368Z,-0.23
2023-03-17T05:18:30.669Z,-0.21
2023-03-17T05:19:32.924Z,-0.22
2023-03-17T05:20:35.049Z,-0.25
2023-03-17T05:21:37.267Z,-0.18
2023-03-17T05:22:39.454Z,-0.17
2023-03-17T05:23:41.956Z,-0.13
2023-03-17T05:24:44.353Z,-0.04
2023-03-17T05:25:46.922Z,0.08
2023-03-17T05:26:49.089Z,0.03
2023-03-17T05:27:51.359Z,0.06
2023-03-17T05:28:53.457Z,0.02
2023-03-17T05:29:55.993Z,0.00
2023-03-17T05:30:58.456Z,0.00
2023-03-17T05:32:00.671Z,-0.07
2023-03-17T05:33:03.089Z,-0.08
2023-03-17T05:34:05.716Z,0.09
2023-03-17T05:35:08.098Z,0.12
2023-03-17T05:36:10.266Z,0.19
2023-03-17T05:37:12.936Z,0.12
2023-03-17T05:38:16.076Z,0.21
2023-03-17T05:39:18.245Z,0.25
2023-03-17T05:40:22.512Z,0.31
2023-03-17T05:41:26.559Z,0.38
2023-03-17T05:42:28.690Z,0.39
2023-03-17T05:43:30.812Z,0.37
2023-03-17T05:44:32.993Z,0.41
2023-03-17T05:45:35.181Z,0.43
2023-03-17T05:46:37.419Z,0.38
2023-03-17T05:47:39.573Z,0.39
2023-03-17T05:48:41.978Z,0.50
2023-03-17T05:49:44.104Z,0.57
2023-03-17T05:50:46.280Z,0.66
2023-03-17T05:51:48.408Z,0.75
2023-03-17T05:52:52.276Z,0.81
2023-03-17T05:53:54.465Z,0.87
2023-03-17T05:54:56.822Z,0.75
2023-03-17T05:55:58.972Z,0.78
2023-03-17T05:57:01.224Z,0.76
2023-03-17T05:58:05.140Z,0.91
2023-03-17T05:59:08.348Z,0.84
2023-03-17T06:00:12.769Z,0.87
2023-03-17T06:01:14.984Z,0.86
2023-03-17T06:02:17.230Z,0.99
2023-03-17T06:03:19.582Z,1.03
2023-03-17T06:04:21.951Z,1.01
2023-03-17T06:05:24.226Z,1.06
2023-03-17T06:06:27.072Z,1.20
2023-03-17T06:07:38.129Z,1.30
2023-03-17T06:08:50.763Z,1.33
2023-03-17T06:09:52.909Z,1.39
2023-03-17T06:10:55.084Z,1.36
2023-03-17T06:11:57.753Z,1.37
2023-03-17T06:13:03.371Z,1.51
2023-03-17T06:14:06.318Z,1.67
2023-03-17T06:15:09.848Z,1.64
2023-03-17T06:16:12.246Z,1.58
2023-03-17T06:17:14.496Z,1.61
2023-03-17T06:18:16.639Z,1.62
2023-03-17T06:19:19.122Z,1.63
2023-03-17T06:20:22.026Z,1.72
2023-03-17T06:21:24.219Z,1.77
2023-03-17T06:22:26.320Z,1.77
2023-03-17T06:23:28.497Z,1.97
2023-03-17T06:24:30.705Z,1.95
2023-03-17T06:25:34.871Z,1.94
2023-03-17T06:26:37.292Z,1.89
2023-03-17T06:27:39.644Z,2.00
2023-03-17T06:28:41.892Z,2.12
2023-03-17T06:29:44.083Z,2.20
2023-03-17T06:30:46.669Z,2.28
2023-03-17T06:31:51.204Z,2.38
2023-03-17T06:32:53.438Z,2.43
2023-03-17T06:33:57.456Z,2.47
2023-03-17T06:34:59.678Z,2.54
2023-03-17T06:36:01.895Z,2.64
2023-03-17T06:37:05.034Z,2.67
2023-03-17T06:38:07.570Z,2.62
2023-03-17T06:39:09.748Z,2.66
2023-03-17T06:40:12.617Z,2.70
2023-03-17T06:41:15.076Z,2.78
2023-03-17T06:42:17.214Z,2.92
2023-03-17T06:43:19.701Z,2.91
2023-03-17T06:44:22.135Z,2.93
2023-03-17T06:45:24.319Z,3.02
2023-03-17T06:46:27.153Z,3.04
2023-03-17T06:47:29.420Z,3.11
2023-03-17T06:48:31.504Z,3.24
2023-03-17T06:49:33.758Z,3.25
2023-03-17T06:50:36.194Z,3.26
2023-03-17T06:51:38.318Z,3.34
2023-03-17T06:52:40.969Z,3.55
2023-03-17T06:53:43.143Z,3.58
2023-03-17T06:54:45.245Z,3.61
2023-03-17T06:55:48.259Z,3.68
2023-03-17T06:56:50.950Z,3.73
2023-03-17T06:57:54.337Z,3.71
2023-03-17T06:58:56.454Z,3.83
2023-03-17T06:59:58.599Z,3.86
2023-03-17T07:01:00.865Z,3.96
2023-03-17T07:02:03.742Z,4.00
2023-03-17T07:03:06.325Z,4.04
2023-03-17T07:04:09.529Z,3.97
2023-03-17T07:05:13.964Z,3.94
2023-03-17T07:06:16.105Z,4.09
2023-03-17T07:07:19.607Z,4.19
2023-03-17T07:08:22.104Z,4.20
2023-03-17T07:09:24.220Z,4.24
2023-03-17T07:10:26.403Z,4.22
2023-03-17T07:11:29.307Z,4.30
2023-03-17T07:12:33.060Z,4.39
2023-03-17T07:13:37.314Z,4.50
2023-03-17T07:14:39.437Z,4.72
2023-03-17T07:15:41.913Z,4.92
2023-03-17T07:16:45.167Z,4.78
2023-03-17T07:17:47.962Z,4.77
2023-03-17T07:18:50.695Z,4.88
2023-03-17T07:19:52.813Z,4.93
2023-03-17T07:20:54.985Z,5.02
2023-03-17T07:21:57.232Z,5.16
2023-03-17T07:22:59.590Z,5.02
2023-03-17T07:24:01.719Z,4.97
2023-03-17T07:25:04.024Z,5.15
2023-03-17T07:26:06.146Z,5.29
2023-03-17T07:27:08.713Z,5.33
2023-03-17T07:28:10.855Z,5.32
2023-03-17T07:29:14.289Z,5.43
2023-03-17T07:30:19.210Z,5.52
2023-03-17T07:31:21.688Z,5.61
2023-03-17T07:32:24.731Z,5.80
2023-03-17T07:33:26.866Z,5.84
2023-03-17T07:34:29.079Z,5.78
2023-03-17T07:35:33.808Z,5.78
2023-03-17T07:36:36.578Z,5.81
2023-03-17T07:37:38.780Z,5.93
2023-03-17T07:38:41.769Z,5.99
2023-03-17T07:39:44.480Z,6.08
2023-03-17T07:40:49.829Z,6.18
2023-03-17T07:41:55.645Z,6.25
2023-03-17T07:42:57.759Z,6.33
2023-03-17T07:44:00.204Z,6.43
2023-03-17T07:45:03.952Z,6.54
2023-03-17T07:46:06.630Z,6.44
2023-03-17T07:47:10.215Z,6.39
2023-03-17T07:48:12.754Z,6.54
2023-03-17T07:49:15.203Z,6.52
2023-03-17T07:50:17.651Z,6.56
2023-03-17T07:51:22.225Z,6.56
2023-03-17T07:52:24.429Z,6.64
2023-03-17T07:53:26.612Z,6.61
2023-03-17T07:54:29.255Z,6.52
2023-03-17T07:55:32.791Z,6.67
2023-03-17T07:56:35.285Z,6.69
2023-03-17T07:57:37.502Z,6.54
2023-03-17T07:58:40.382Z,6.68
2023-03-17T07:59:42.511Z,6.65
2023-03-17T08:00:44.645Z,6.71
2023-03-17T08:01:46.826Z,6.77
2023-03-17T08:03:07.076Z,6.88
2023-03-17T08:04:13.310Z,6.85
2023-03-17T08:05:15.514Z,6.94
2023-03-17T08:06:17.861Z,7.08
2023-03-17T08:07:20.339Z,7.01
2023-03-17T08:08:23.680Z,7.06
2023-03-17T08:09:25.829Z,7.17
2023-03-17T08:10:28.057Z,7.16
2023-03-17T08:11:30.218Z,7.07
2023-03-17T08:12:32.371Z,7.21
2023-03-17T08:13:34.892Z,7.28
2023-03-17T08:14:37.022Z,7.44
2023-03-17T08:15:39.173Z,7.46
2023-03-17T08:16:41.452Z,7.50
2023-03-17T08:17:43.732Z,7.43
2023-03-17T08:18:46.243Z,7.42
2023-03-17T08:19:48.369Z,7.61
2023-03-17T08:20:51.462Z,7.86
2023-03-17T08:21:54.101Z,8.16
2023-03-17T08:22:56.871Z,8.26
2023-03-17T08:23:59.123Z,8.49
2023-03-17T08:25:01.573Z,8.67
2023-03-17T08:26:04.545Z,8.94
2023-03-17T08:27:08.094Z,9.24
2023-03-17T08:28:10.484Z,9.58
2023-03-17T08:29:12.642Z,9.97
2023-03-17T08:30:16.466Z,9.74
2023-03-17T08:31:20.901Z,9.79
2023-03-17T08:32:23.149Z,9.57
2023-03-17T08:33:25.305Z,9.70
2023-03-17T08:34:27.420Z,9.91
2023-03-17T08:35:31.028Z,10.01
2023-03-17T08:36:33.866Z,10.01
2023-03-17T08:37:37.898Z,10.05
2023-03-17T08:38:41.540Z,9.77
2023-03-17T08:39:44.926Z,9.76
2023-03-17T08:40:47.288Z,10.20
2023-03-17T08:41:49.417Z,9.96
2023-03-17T08:42:51.796Z,9.87
2023-03-17T08:43:54.444Z,10.12
2023-03-17T08:44:56.575Z,10.77
2023-03-17T08:46:13.883Z,10.98
2023-03-17T08:47:16.259Z,11.06
2023-03-17T08:48:18.369Z,10.93
2023-03-17T08:49:21.708Z,10.74
2023-03-17T08:50:24.288Z,10.56
2023-03-17T08:51:29.140Z,11.03
2023-03-17T08:52:31.693Z,11.30
2023-03-17T08:53:35.138Z,11.68
2023-03-17T08:54:37.468Z,11.48
2023-03-17T08:55:40.057Z,10.96
2023-03-17T08:56:42.584Z,10.32
2023-03-17T08:57:45.421Z,10.44
2023-03-17T08:58:48.348Z,11.04
2023-03-17T08:59:51.034Z,11.30
2023-03-17T09:00:53.943Z,11.48
2023-03-17T09:01:56.959Z,10.91
2023-03-17T09:02:59.257Z,10.68
2023-03-17T09:04:01.783Z,11.02
2023-03-17T09:05:05.936Z,10.55
2023-03-17T09:06:11.270Z,10.68
2023-03-17T09:07:13.629Z,11.27
2023-03-17T09:08:15.908Z,11.54
2023-03-17T09:09:18.601Z,11.78
2023-03-17T09:10:22.837Z,11.91
2023-03-17T09:11:27.671Z,11.93
2023-03-17T09:12:30.044Z,12.22
2023-03-17T09:13:33.760Z,11.56
2023-03-17T09:14:43.376Z,11.04
2023-03-17T09:15:46.210Z,11.58
2023-03-17T09:16:48.837Z,12.04
2023-03-17T09:17:50.970Z,12.03
2023-03-17T09:18:53.617Z,12.40
2023-03-17T09:19:55.962Z,12.26
2023-03-17T09:20:58.166Z,12.17
2023-03-17T09:22:00.689Z,12.76
2023-03-17T09:23:09.574Z,13.09
2023-03-17T09:24:12.486Z,13.12
2023-03-17T09:25:15.855Z,12.65
2023-03-17T09:26:17.980Z,12.53
2023-03-17T09:27:20.116Z,12.77
2023-03-17T09:28:22.229Z,12.89
2023-03-17T09:29:24.307Z,13.08
2023-03-17T09:30:27.059Z,13.34
2023-03-17T09:31:29.493Z,13.42
2023-03-17T09:32:32.428Z,13.76
2023-03-17T09:33:34.674Z,14.00
2023-03-17T09:34:36.828Z,13.65
2023-03-17T09:35:40.289Z,13.39
2023-03-17T09:36:42.866Z,13.65
2023-03-17T09:37:45.143Z,13.66
2023-03-17T09:38:47.359Z,13.66
2023-03-17T09:39:49.744Z,13.80
2023-03-17T09:41:21.362Z,14.04
2023-03-17T09:42:43.832Z,13.51
2023-03-17T09:43:56.962Z,14.00
2023-03-17T09:45:35.455Z,14.14
2023-03-17T09:46:46.405Z,14.11
2023-03-17T09:47:54.618Z,14.07
2023-03-17T09:49:02.193Z,13.95
2023-03-17T09:50:17.628Z,13.95
2023-03-17T09:51:20.069Z,13.61
2023-03-17T09:52:32.570Z,13.56
2023-03-17T09:53:51.720Z,13.59
2023-03-17T09:54:54.224Z,12.47
2023-03-17T09:55:58.513Z,12.80
2023-03-17T09:57:06.889Z,11.97
2023-03-17T09:58:10.421Z,12.23
2023-03-17T09:59:23.664Z,12.50
2023-03-17T10:00:29.296Z,12.00
2023-03-17T10:01:32.347Z,12.61
2023-03-17T10:02:37.987Z,12.90
2023-03-17T10:03:40.216Z,13.21
2023-03-17T10:04:44.996Z,13.77
2023-03-17T10:05:47.424Z,13.54
2023-03-17T10:06:50.357Z,14.12
2023-03-17T10:08:30.165Z,14.39
2023-03-17T10:09:43.461Z,14.82
2023-03-17T10:11:28.382Z,15.10
2023-03-17T10:12:47.078Z,15.06
2023-03-17T10:14:01.181Z,15.36
2023-03-17T10:15:16.615Z,15.26
2023-03-17T10:16:20.793Z,15.55
2023-03-17T10:17:26.684Z,15.84
2023-03-17T10:18:33.834Z,15.27
2023-03-17T10:19:54.728Z,15.03
2023-03-17T10:21:01.404Z,15.16
2023-03-17T10:22:10.430Z,15.21
2023-03-17T10:23:15.333Z,15.08
2023-03-17T10:24:18.791Z,15.45
2023-03-17T10:25:22.174Z,15.12
2023-03-17T10:26:35.002Z,15.14
2023-03-17T10:27:37.829Z,15.22
2023-03-17T10:28:40.495Z,15.58
2023-03-17T10:29:42.882Z,15.59
2023-03-17T10:30:45.025Z,15.57
2023-03-17T10:31:47.650Z,15.61
2023-03-17T10:32:52.011Z,15.28
2023-03-17T10:33:55.796Z,15.65
2023-03-17T10:34:57.919Z,15.90
2023-03-17T10:36:09.428Z,16.17
2023-03-17T10:37:20.362Z,16.51
2023-03-17T10:38:23.510Z,16.44
2023-03-17T10:39:25.727Z,16.42
2023-03-17T10:40:30.614Z,15.97
2023-03-17T10:41:36.164Z,15.99
2023-03-17T10:43:17.823Z,16.11
2023-03-17T10:44:34.879Z,16.03
2023-03-17T10:45:43.292Z,15.44
2023-03-17T10:46:53.406Z,15.27
2023-03-17T10:47:57.753Z,15.11
2023-03-17T10:49:07.450Z,15.19
2023-03-17T10:50:15.524Z,15.02
2023-03-17T10:51:31.906Z,15.61
2023-03-17T10:52:39.669Z,15.71
2023-03-17T10:53:43.880Z,15.81
2023-03-17T10:54:51.659Z,16.17
2023-03-17T10:56:07.508Z,16.21
2023-03-17T10:57:14.081Z,16.54
2023-03-17T10:58:22.884Z,16.46
2023-03-17T11:00:38.619Z,16.21
2023-03-17T11:01:45.922Z,16.55
2023-03-17T11:02:53.605Z,16.92
2023-03-17T11:03:56.221Z,16.76
2023-03-17T11:05:09.624Z,16.95
2023-03-17T11:06:17.064Z,17.06
2023-03-17T11:07:22.188Z,16.80
2023-03-17T11:08:24.406Z,16.80
2023-03-17T11:09:29.275Z,16.54
2023-03-17T11:10:37.001Z,16.32
2023-03-17T11:11:48.044Z,16.23
2023-03-17T11:12:55.243Z,16.31
2023-03-17T11:14:06.086Z,16.25
2023-03-17T11:15:10.939Z,16.04
2023-03-17T11:16:22.581Z,16.57
2023-03-17T11:17:36.560Z,17.18
2023-03-17T11:18:39.936Z,16.78
2023-03-17T11:19:49.920Z,16.84
2023-03-17T11:21:07.179Z,17.30
2023-03-17T11:22:41.960Z,16.69
2023-03-17T11:23:55.643Z,16.92
2023-03-17T11:25:19.636Z,17.27
2023-03-17T11:26:38.919Z,16.64
2023-03-17T11:27:49.866Z,16.13
2023-03-17T11:28:57.268Z,16.04
2023-03-17T11:30:19.505Z,16.09
2023-03-17T11:31:32.278Z,15.97
2023-03-17T11:32:43.833Z,16.50
2023-03-17T11:34:00.305Z,16.48
2023-03-17T11:35:14.274Z,17.07
2023-03-17T11:36:51.613Z,16.51
2023-03-17T11:38:24.760Z,16.36
2023-03-17T11:39:28.647Z,16.19
2023-03-17T11:40:37.523Z,16.62
2023-03-17T11:41:48.646Z,16.44
2023-03-17T11:43:28.462Z,16.97
2023-03-17T11:44:53.297Z,17.34
2023-03-17T11:45:55.441Z,16.44
2023-03-17T11:47:21.469Z,17.18
2023-03-17T11:48:55.198Z,16.67
2023-03-17T11:50:08.444Z,15.53
2023-03-17T11:51:21.820Z,14.95
2023-03-17T11:52:33.540Z,15.99
2023-03-17T11:53:47.692Z,16.87
2023-03-17T11:54:54.164Z,17.30
2023-03-17T11:56:01.630Z,17.57
2023-03-17T11:57:08.240Z,17.82
2023-03-17T11:58:19.609Z,18.04
2023-03-17T11:59:36.279Z,18.28
2023-03-17T12:01:09.081Z,18.35
2023-03-17T12:02:23.479Z,18.83
2023-03-17T12:03:38.856Z,18.55
2023-03-17T12:04:58.883Z,18.69
2023-03-17T12:06:05.525Z,17.57
2023-03-17T12:07:23.151Z,18.10
2023-03-17T12:08:39.721Z,17.94
2023-03-17T12:09:45.691Z,18.50
2023-03-17T12:10:51.858Z,18.96
2023-03-17T12:11:55.816Z,18.41
2023-03-17T12:13:08.869Z,18.69
2023-03-17T12:14:30.915Z,18.92
2023-03-17T12:15:37.939Z,18.69
2023-03-17T12:17:10.784Z,18.96
2023-03-17T12:18:25.635Z,19.15
2023-03-17T12:19:36.991Z,18.46
2023-03-17T12:20:42.507Z,18.80
2023-03-17T12:21:50.319Z,18.70
2023-03-17T12:23:21.538Z,18.55
2023-03-17T12:24:41.855Z,18.85
2023-03-17T12:26:06.987Z,18.65
2023-03-17T12:27:23.400Z,19.28
2023-03-17T12:28:34.530Z,19.19
2023-03-17T12:29:58.419Z,18.49
2023-03-17T12:31:09.605Z,18.53
2023-03-17T12:32:47.258Z,18.48
2023-03-17T12:34:08.016Z,18.47
2023-03-17T12:35:22.103Z,17.97
2023-03-17T12:36:24.731Z,18.22
2023-03-17T12:37:28.329Z,17.94
2023-03-17T12:38:40.319Z,18.23
2023-03-17T12:39:47.850Z,18.60
2023-03-17T12:41:03.899Z,18.84
2023-03-17T12:42:08.871Z,18.36
2023-03-17T12:43:38.988Z,18.04
2023-03-17T12:44:59.682Z,18.24
2023-03-17T12:46:43.408Z,18.04
2023-03-17T12:47:50.774Z,17.62
2023-03-17T12:49:19.984Z,18.04
2023-03-17T12:50:49.575Z,19.09
2023-03-17T12:52:22.761Z,19.51
2023-03-17T12:53:33.342Z,19.46
2023-03-17T12:54:37.393Z,18.14
2023-03-17T12:55:39.664Z,18.50
2023-03-17T12:56:46.397Z,19.22
2023-03-17T12:57:59.999Z,18.57
2023-03-17T12:59:24.090Z,18.15
2023-03-17T13:00:29.725Z,17.86
2023-03-17T13:01:32.924Z,18.05
2023-03-17T13:02:36.786Z,17.86
2023-03-17T13:03:47.228Z,18.50
2023-03-17T13:04:57.740Z,19.09
2023-03-17T13:06:02.446Z,19.12
2023-03-17T13:07:14.265Z,19.14
2023-03-17T13:08:25.610Z,18.81
2023-03-17T13:09:33.333Z,19.12
2023-03-17T13:10:48.132Z,18.78
2023-03-17T13:11:50.263Z,18.69
2023-03-17T13:13:05.776Z,18.41
2023-03-17T13:14:24.389Z,18.11
2023-03-17T13:15:35.999Z,17.55
2023-03-17T13:16:41.019Z,17.72
2023-03-17T13:17:43.269Z,17.88
2023-03-17T13:18:48.034Z,17.66
2023-03-17T13:20:10.167Z,17.99
2023-03-17T13:21:15.135Z,18.28
2023-03-17T13:22:22.706Z,17.03
2023-03-17T13:24:10.185Z,17.76
2023-03-17T13:25:36.247Z,17.70
2023-03-17T13:27:04.567Z,17.77
2023-03-17T13:28:12.777Z,17.63
2023-03-17T13:29:41.360Z,17.55
2023-03-17T13:30:54.999Z,17.37
2023-03-17T13:32:13.882Z,17.72
2023-03-17T13:33:23.490Z,17.35
2023-03-17T13:34:28.217Z,17.56
2023-03-17T13:35:48.262Z,17.76
2023-03-17T13:37:05.563Z,17.59
2023-03-17T13:38:30.894Z,18.68
2023-03-17T13:39:57.580Z,18.15
2023-03-17T13:41:14.572Z,18.83
2023-03-17T13:42:43.548Z,19.26
2023-03-17T13:44:12.162Z,19.73
2023-03-17T13:45:26.507Z,19.55
2023-03-17T13:46:41.771Z,20.32
2023-03-17T13:47:44.568Z,19.73
2023-03-17T13:48:47.142Z,19.28
2023-03-17T13:49:50.882Z,19.25
2023-03-17T13:51:17.777Z,19.01
2023-03-17T13:52:31.171Z,19.74
2023-03-17T13:53:37.466Z,20.26
2023-03-17T13:54:49.076Z,20.68
2023-03-17T13:56:12.346Z,20.48
2023-03-17T13:57:28.125Z,19.16
2023-03-17T13:58:34.293Z,19.23
2023-03-17T13:59:39.423Z,19.30
2023-03-17T14:00:46.984Z,19.19
2023-03-17T14:02:01.587Z,19.75
2023-03-17T14:03:34.393Z,19.84
2023-03-17T14:04:52.700Z,20.35
2023-03-17T14:05:55.809Z,21.00
2023-03-17T14:07:00.667Z,20.72
2023-03-17T14:08:27.453Z,20.12
2023-03-17T14:09:29.531Z,20.53
2023-03-17T14:10:34.064Z,20.41
2023-03-17T14:11:36.696Z,20.19
2023-03-17T14:12:42.989Z,19.60
2023-03-17T14:14:06.042Z,19.85
2023-03-17T14:15:34.318Z,20.35
2023-03-17T14:16:55.388Z,21.09
2023-03-17T14:18:08.896Z,20.32
2023-03-17T14:19:17.946Z,19.62
2023-03-17T14:20:25.410Z,19.06
2023-03-17T14:21:32.675Z,18.96
2023-03-17T14:22:45.959Z,18.71
2023-03-17T14:23:58.938Z,18.93
2023-03-17T14:25:01.931Z,19.13
2023-03-17T14:26:05.121Z,17.89
2023-03-17T14:27:08.037Z,18.85
2023-03-17T14:28:13.115Z,18.98